Time;durP1;ratioP1;P1;durP2;ratioP2;P2;SDS_P1;SDS_P2;PMS_P1;PMS_P2;Temp;Humidity;BMP_temperature;BMP_pressure;BME280_temperature;BME280_humidity;BME280_pressure;Samples;Min_cycle;Max_cycle;Signal;HPM_P1;HPM_P2
2022/03/06 00:00:22;;;;;;;20.93;18.73;;;;;;;;;;5058851;28;24499;-53
2022/03/06 00:02:47;;;;;;;21.02;18.70;;;;;;;;;;5065496;28;24835;-52
2022/03/06 00:05:13;;;;;;;22.88;20.38;;;;;;;;;;5068835;28;24414;-52
2022/03/06 00:07:38;;;;;;;21.35;18.42;;;;;;;;;;5066157;28;24497;-53
2022/03/06 00:10:04;;;;;;;22.10;18.33;;;;;;;;;;5067843;28;24726;-52
2022/03/06 00:12:29;;;;;;;20.58;18.38;;;;;;;;;;5062397;28;24602;-52
2022/03/06 00:14:55;;;;;;;20.17;17.98;;;;;;;;;;5067145;28;24441;-52
2022/03/06 00:17:20;;;;;;;21.70;19.03;;;;;;;;;;5065323;28;24430;-52
2022/03/06 00:19:45;;;;;;;20.30;18.10;;;;;;;;;;5067513;28;24415;-53
2022/03/06 00:22:10;;;;;;;19.90;17.80;;;;;;;;;;5066628;28;24429;-52
2022/03/06 00:24:35;;;;;;;19.97;17.80;;;;;;;;;;5064525;28;24419;-53
2022/03/06 00:27:00;;;;;;;19.40;17.40;;;;;;;;;;5066119;28;24473;-52
2022/03/06 00:29:26;;;;;;;21.30;16.80;;;;;;;;;;5066192;28;24466;-53
2022/03/06 00:31:51;;;;;;;18.75;16.75;;;;;;;;;;5065436;28;24475;-52
2022/03/06 00:34:16;;;;;;;19.10;17.00;;;;;;;;;;5065334;28;24461;-51
2022/03/06 00:36:41;;;;;;;19.10;15.73;;;;;;;;;;5066563;28;24441;-52
2022/03/06 00:39:07;;;;;;;21.63;16.98;;;;;;;;;;5067156;28;24509;-52
2022/03/06 00:41:32;;;;;;;17.70;15.80;;;;;;;;;;5065337;28;24446;-52
2022/03/06 00:43:57;;;;;;;20.10;16.50;;;;;;;;;;5065055;28;25041;-53
2022/03/06 00:46:22;;;;;;;19.13;15.95;;;;;;;;;;5064404;28;24430;-52
2022/03/06 00:48:47;;;;;;;17.50;15.43;;;;;;;;;;5063611;28;24484;-52
2022/03/06 00:51:13;;;;;;;18.43;15.90;;;;;;;;;;5062364;28;25063;-52
2022/03/06 00:53:38;;;;;;;18.23;16.13;;;;;;;;;;5069208;28;24438;-52
2022/03/06 00:56:03;;;;;;;18.27;16.13;;;;;;;;;;5068502;28;24514;-52
2022/03/06 00:58:29;;;;;;;18.77;16.80;;;;;;;;;;5065600;28;24489;-52
2022/03/06 01:00:54;;;;;;;19.60;17.55;;;;;;;;;;5067464;28;24422;-52
2022/03/06 01:03:20;;;;;;;20.10;17.90;;;;;;;;;;5069296;28;24793;-51
2022/03/06 01:05:46;;;;;;;18.90;16.77;;;;;;;;;;5064566;28;24449;-52
2022/03/06 01:08:11;;;;;;;18.48;15.88;;;;;;;;;;5065575;28;24856;-51
2022/03/06 01:10:37;;;;;;;17.73;15.95;;;;;;;;;;5066618;28;24446;-52
2022/03/06 01:13:03;;;;;;;17.85;15.82;;;;;;;;;;5066861;28;24430;-52
2022/03/06 01:15:29;;;;;;;18.17;15.43;;;;;;;;;;5065924;28;24704;-51
2022/03/06 01:17:54;;;;;;;17.60;15.80;;;;;;;;;;5064964;28;24648;-52
2022/03/06 01:20:19;;;;;;;17.87;16.07;;;;;;;;;;5066812;28;24477;-52
2022/03/06 01:22:45;;;;;;;18.58;16.67;;;;;;;;;;5065729;28;24987;-52
2022/03/06 01:25:10;;;;;;;17.53;15.83;;;;;;;;;;5064053;28;24964;-51
2022/03/06 01:27:35;;;;;;;18.03;16.13;;;;;;;;;;5070765;28;24422;-51
2022/03/06 01:30:01;;;;;;;18.70;16.60;;;;;;;;;;5065933;28;24421;-52
2022/03/06 01:32:26;;;;;;;17.93;16.13;;;;;;;;;;5064714;28;24900;-52
2022/03/06 01:34:51;;;;;;;18.63;16.55;;;;;;;;;;5062763;28;24610;-52
2022/03/06 01:37:16;;;;;;;19.55;16.65;;;;;;;;;;5064716;28;25034;-52
2022/03/06 01:39:41;;;;;;;19.55;16.63;;;;;;;;;;5059124;28;24462;-52
2022/03/06 01:42:07;;;;;;;18.25;16.35;;;;;;;;;;5063502;28;24488;-53
2022/03/06 01:44:32;;;;;;;18.13;16.15;;;;;;;;;;5066386;28;24840;-53
2022/03/06 01:46:57;;;;;;;18.80;16.80;;;;;;;;;;5065735;28;24675;-53
2022/03/06 01:49:22;;;;;;;17.90;16.10;;;;;;;;;;5064390;28;24426;-52
2022/03/06 01:51:47;;;;;;;18.33;16.40;;;;;;;;;;5062837;28;24517;-52
2022/03/06 01:54:13;;;;;;;18.50;16.33;;;;;;;;;;5064017;28;25035;-52
2022/03/06 01:56:39;;;;;;;18.10;16.20;;;;;;;;;;5064956;28;24427;-51
2022/03/06 01:59:04;;;;;;;17.73;15.85;;;;;;;;;;5064718;28;24415;-51
2022/03/06 02:01:30;;;;;;;19.23;16.05;;;;;;;;;;5068633;28;24982;-51
2022/03/06 02:03:55;;;;;;;17.67;15.87;;;;;;;;;;5067538;28;24476;-51
2022/03/06 02:06:22;;;;;;;17.83;16.03;;;;;;;;;;5069842;28;25221;-51
2022/03/06 02:08:48;;;;;;;16.80;15.00;;;;;;;;;;5068962;28;24411;-51
2022/03/06 02:11:14;;;;;;;17.63;15.73;;;;;;;;;;5066340;28;24541;-52
2022/03/06 02:13:39;;;;;;;18.17;15.93;;;;;;;;;;5073217;28;24417;-52
2022/03/06 02:16:05;;;;;;;19.07;16.77;;;;;;;;;;5069193;28;24457;-52
2022/03/06 02:18:30;;;;;;;17.65;15.85;;;;;;;;;;5076041;28;25044;-54
2022/03/06 02:20:55;;;;;;;19.03;16.17;;;;;;;;;;5068540;28;24426;-53
2022/03/06 02:23:21;;;;;;;17.93;16.13;;;;;;;;;;5069832;28;24492;-52
2022/03/06 02:25:46;;;;;;;18.13;16.33;;;;;;;;;;5066768;28;24437;-52
2022/03/06 02:28:11;;;;;;;16.27;14.57;;;;;;;;;;5071256;28;24494;-52
2022/03/06 02:30:37;;;;;;;17.40;15.60;;;;;;;;;;5069026;28;24431;-52
2022/03/06 02:33:04;;;;;;;17.35;15.55;;;;;;;;;;5076502;28;24441;-52
2022/03/06 02:35:30;;;;;;;18.67;15.50;;;;;;;;;;5066941;28;24484;-52
2022/03/06 02:37:55;;;;;;;17.40;15.07;;;;;;;;;;5067977;28;24504;-51
2022/03/06 02:40:21;;;;;;;17.63;15.73;;;;;;;;;;5068060;28;25088;-52
2022/03/06 02:42:47;;;;;;;16.80;14.70;;;;;;;;;;5070090;28;24441;-52
2022/03/06 02:45:14;;;;;;;15.07;13.48;;;;;;;;;;5069084;28;24773;-52
2022/03/06 02:47:40;;;;;;;14.13;12.50;;;;;;;;;;5063694;28;24419;-52
2022/03/06 02:50:07;;;;;;;16.10;13.30;;;;;;;;;;5061849;28;24433;-52
2022/03/06 02:52:32;;;;;;;14.60;12.45;;;;;;;;;;5067232;28;24426;-52
2022/03/06 02:54:57;;;;;;;13.90;12.50;;;;;;;;;;5068833;28;24791;-52
2022/03/06 02:57:22;;;;;;;14.60;12.33;;;;;;;;;;5066690;28;24417;-52
2022/03/06 02:59:47;;;;;;;13.82;12.43;;;;;;;;;;5079579;28;24540;-52
2022/03/06 03:02:13;;;;;;;13.05;11.75;;;;;;;;;;5070348;28;24590;-52
2022/03/06 03:04:39;;;;;;;12.43;11.13;;;;;;;;;;5067007;28;24437;-52
2022/03/06 03:07:05;;;;;;;12.40;11.10;;;;;;;;;;5066799;28;24514;-52
2022/03/06 03:09:31;;;;;;;11.98;10.73;;;;;;;;;;5071296;28;24544;-53
2022/03/06 03:11:56;;;;;;;12.57;10.70;;;;;;;;;;5075878;28;25163;-53
2022/03/06 03:14:21;;;;;;;11.95;10.75;;;;;;;;;;5067649;28;24425;-52
2022/03/06 03:16:47;;;;;;;12.57;10.90;;;;;;;;;;5068134;28;24788;-52
2022/03/06 03:19:12;;;;;;;11.20;10.10;;;;;;;;;;5067792;28;24419;-52
2022/03/06 03:21:37;;;;;;;12.45;10.70;;;;;;;;;;5067532;28;24423;-53
2022/03/06 03:24:03;;;;;;;13.02;11.40;;;;;;;;;;5067494;28;24796;-52
2022/03/06 03:26:28;;;;;;;11.40;10.20;;;;;;;;;;5070710;28;24422;-53
2022/03/06 03:28:53;;;;;;;11.93;10.73;;;;;;;;;;5066818;28;24422;-52
2022/03/06 03:31:18;;;;;;;11.00;9.90;;;;;;;;;;5066838;28;24461;-52
2022/03/06 03:33:44;;;;;;;12.65;10.82;;;;;;;;;;5066769;28;24469;-53
2022/03/06 03:36:09;;;;;;;11.40;10.10;;;;;;;;;;5066941;28;24462;-52
2022/03/06 03:38:34;;;;;;;10.77;9.70;;;;;;;;;;5079291;28;24437;-53
2022/03/06 03:41:01;;;;;;;10.97;9.83;;;;;;;;;;5066467;28;24496;-52
2022/03/06 03:43:26;;;;;;;11.48;9.90;;;;;;;;;;5067102;28;24449;-53
2022/03/06 03:45:51;;;;;;;10.90;9.50;;;;;;;;;;5065033;28;24419;-52
2022/03/06 03:48:16;;;;;;;11.03;8.90;;;;;;;;;;5071820;28;24479;-52
2022/03/06 03:50:41;;;;;;;9.70;8.70;;;;;;;;;;5067142;28;24505;-52
2022/03/06 03:53:06;;;;;;;10.02;9.02;;;;;;;;;;5065323;28;24983;-53
2022/03/06 03:55:32;;;;;;;9.03;8.13;;;;;;;;;;5067481;28;24468;-53
2022/03/06 03:57:57;;;;;;;8.73;7.87;;;;;;;;;;5066581;28;24836;-52
2022/03/06 04:00:22;;;;;;;8.85;7.30;;;;;;;;;;5073445;28;24521;-52
2022/03/06 04:02:47;;;;;;;9.10;7.77;;;;;;;;;;5071598;28;24433;-53
2022/03/06 04:05:12;;;;;;;8.50;7.60;;;;;;;;;;5062653;28;24479;-52
2022/03/06 04:07:38;;;;;;;9.93;8.23;;;;;;;;;;5063727;28;24434;-52
2022/03/06 04:10:03;;;;;;;8.30;7.50;;;;;;;;;;5066855;28;24831;-53
2022/03/06 04:12:28;;;;;;;8.77;7.20;;;;;;;;;;5065724;28;24415;-53
2022/03/06 04:14:53;;;;;;;9.10;8.20;;;;;;;;;;5065908;28;25205;-53
2022/03/06 04:17:19;;;;;;;8.97;8.17;;;;;;;;;;5065723;28;24423;-53
2022/03/06 04:19:44;;;;;;;9.17;8.27;;;;;;;;;;5067060;28;24437;-52
2022/03/06 04:22:09;;;;;;;10.10;9.10;;;;;;;;;;5066115;28;24406;-53
2022/03/06 04:24:34;;;;;;;9.43;8.63;;;;;;;;;;5064745;28;24438;-52
2022/03/06 04:26:59;;;;;;;9.80;8.80;;;;;;;;;;5075199;28;24511;-53
2022/03/06 04:29:24;;;;;;;9.50;8.60;;;;;;;;;;5070444;28;24505;-52
2022/03/06 04:31:49;;;;;;;10.65;9.55;;;;;;;;;;5068348;28;24437;-52
2022/03/06 04:34:15;;;;;;;9.70;8.80;;;;;;;;;;5062253;28;24465;-52
2022/03/06 04:36:40;;;;;;;10.07;8.90;;;;;;;;;;5067318;28;24421;-53
2022/03/06 04:39:05;;;;;;;9.87;8.93;;;;;;;;;;5066930;28;24513;-52
2022/03/06 04:41:31;;;;;;;10.03;9.03;;;;;;;;;;5065066;28;24935;-53
2022/03/06 04:43:56;;;;;;;10.00;8.90;;;;;;;;;;5064103;28;24956;-52
2022/03/06 04:46:21;;;;;;;9.63;8.57;;;;;;;;;;5061799;28;24496;-52
2022/03/06 04:48:47;;;;;;;10.73;9.63;;;;;;;;;;5062709;28;24488;-52
2022/03/06 04:51:12;;;;;;;10.32;9.32;;;;;;;;;;5064716;28;24426;-52
2022/03/06 04:53:37;;;;;;;11.02;9.20;;;;;;;;;;5065006;28;24545;-52
2022/03/06 04:56:03;;;;;;;10.10;9.10;;;;;;;;;;5065006;28;24827;-53
2022/03/06 04:58:28;;;;;;;10.70;9.53;;;;;;;;;;5065554;28;24417;-52
2022/03/06 05:00:53;;;;;;;10.90;9.68;;;;;;;;;;5066244;28;24441;-53
2022/03/06 05:03:18;;;;;;;11.18;9.60;;;;;;;;;;5062956;28;24426;-53
2022/03/06 05:05:43;;;;;;;9.75;8.85;;;;;;;;;;5075133;28;24935;-52
2022/03/06 05:08:08;;;;;;;10.43;9.40;;;;;;;;;;5065305;28;24513;-52
2022/03/06 05:10:35;;;;;;;10.77;9.70;;;;;;;;;;5066052;28;24445;-53
2022/03/06 05:13:01;;;;;;;10.95;9.85;;;;;;;;;;5065139;28;24504;-53
2022/03/06 05:15:26;;;;;;;10.07;9.18;;;;;;;;;;5064653;28;24430;-52
2022/03/06 05:17:52;;;;;;;11.30;10.10;;;;;;;;;;5065920;28;24438;-53
2022/03/06 05:20:17;;;;;;;11.00;10.00;;;;;;;;;;5066264;28;24419;-53
2022/03/06 05:22:43;;;;;;;11.03;9.70;;;;;;;;;;5063856;28;24891;-53
2022/03/06 05:25:09;;;;;;;11.35;10.05;;;;;;;;;;5065408;28;24964;-53
2022/03/06 05:27:34;;;;;;;11.32;10.13;;;;;;;;;;5074307;28;24422;-52
2022/03/06 05:29:59;;;;;;;11.45;10.25;;;;;;;;;;5064435;28;24948;-53
2022/03/06 05:32:24;;;;;;;10.90;9.80;;;;;;;;;;5065875;28;24585;-52
2022/03/06 05:34:49;;;;;;;11.70;10.50;;;;;;;;;;5066487;28;24920;-52
2022/03/06 05:37:15;;;;;;;10.87;9.77;;;;;;;;;;5071265;28;24518;-53
2022/03/06 05:39:40;;;;;;;12.20;11.10;;;;;;;;;;5065128;28;24433;-53
2022/03/06 05:42:05;;;;;;;12.63;11.30;;;;;;;;;;5069818;28;24471;-53
2022/03/06 05:44:31;;;;;;;12.50;11.20;;;;;;;;;;5069296;28;24789;-53
2022/03/06 05:46:56;;;;;;;12.10;10.90;;;;;;;;;;5072961;28;24435;-52
2022/03/06 05:49:22;;;;;;;12.60;11.40;;;;;;;;;;5076559;28;25093;-52
2022/03/06 05:51:47;;;;;;;12.20;10.90;;;;;;;;;;5068551;28;24419;-53
2022/03/06 05:54:12;;;;;;;12.93;11.63;;;;;;;;;;5080635;28;24418;-52
2022/03/06 05:56:39;;;;;;;12.57;11.10;;;;;;;;;;5067700;28;25164;-53
2022/03/06 05:59:04;;;;;;;11.90;10.70;;;;;;;;;;5069693;28;24777;-52
2022/03/06 06:01:30;;;;;;;13.90;11.60;;;;;;;;;;5068370;28;24423;-52
2022/03/06 06:03:56;;;;;;;12.75;11.48;;;;;;;;;;5070334;28;24886;-52
2022/03/06 06:06:22;;;;;;;13.32;12.02;;;;;;;;;;5074473;28;24437;-53
2022/03/06 06:08:47;;;;;;;13.13;11.82;;;;;;;;;;5071315;28;24425;-53
2022/03/06 06:11:12;;;;;;;14.45;11.98;;;;;;;;;;5066864;28;24484;-52
2022/03/06 06:13:37;;;;;;;13.20;11.90;;;;;;;;;;5070449;28;24772;-53
2022/03/06 06:16:03;;;;;;;14.87;13.37;;;;;;;;;;5071522;28;24461;-53
2022/03/06 06:18:30;;;;;;;13.67;11.90;;;;;;;;;;5068265;28;24476;-52
2022/03/06 06:20:56;;;;;;;13.23;11.90;;;;;;;;;;5066841;28;24462;-52
2022/03/06 06:23:21;;;;;;;14.07;12.57;;;;;;;;;;5068708;28;24469;-53
2022/03/06 06:25:46;;;;;;;12.97;11.67;;;;;;;;;;5068250;28;26430;-52
2022/03/06 06:28:11;;;;;;;12.75;11.45;;;;;;;;;;5068942;28;24495;-52
2022/03/06 06:30:37;;;;;;;13.43;11.13;;;;;;;;;;5068189;28;24580;-52
2022/03/06 06:33:02;;;;;;;12.50;10.70;;;;;;;;;;5063987;28;24801;-52
2022/03/06 06:35:27;;;;;;;12.03;11.00;;;;;;;;;;5067869;28;24429;-53
2022/03/06 06:37:52;;;;;;;12.02;10.65;;;;;;;;;;5076374;28;24959;-52
2022/03/06 06:40:17;;;;;;;11.80;10.60;;;;;;;;;;5068364;28;24974;-52
2022/03/06 06:42:42;;;;;;;12.30;10.32;;;;;;;;;;5067240;28;24447;-52
2022/03/06 06:45:08;;;;;;;11.53;10.33;;;;;;;;;;5069056;28;24488;-52
2022/03/06 06:47:33;;;;;;;11.00;9.70;;;;;;;;;;5061800;28;24972;-53
2022/03/06 06:50:00;;;;;;;10.00;9.00;;;;;;;;;;5063474;28;24443;-53
2022/03/06 06:52:25;;;;;;;10.07;9.07;;;;;;;;;;5066652;28;24417;-53
2022/03/06 06:54:50;;;;;;;11.20;10.00;;;;;;;;;;5079928;28;24419;-52
2022/03/06 06:57:15;;;;;;;11.45;9.63;;;;;;;;;;5073202;28;24415;-53
2022/03/06 06:59:40;;;;;;;11.65;10.10;;;;;;;;;;5074528;28;24456;-52
2022/03/06 07:02:06;;;;;;;10.40;9.40;;;;;;;;;;5066565;28;24401;-53
2022/03/06 07:04:31;;;;;;;11.70;10.50;;;;;;;;;;5065406;28;24431;-52
2022/03/06 07:06:56;;;;;;;12.00;10.60;;;;;;;;;;5067977;28;24492;-52
2022/03/06 07:09:22;;;;;;;11.75;10.25;;;;;;;;;;5068381;28;24398;-52
2022/03/06 07:11:47;;;;;;;11.30;10.10;;;;;;;;;;5068243;28;25011;-53
2022/03/06 07:14:12;;;;;;;11.00;9.75;;;;;;;;;;5068118;28;24411;-53
2022/03/06 07:16:37;;;;;;;11.10;10.00;;;;;;;;;;5068174;28;24399;-52
2022/03/06 07:19:02;;;;;;;10.70;9.43;;;;;;;;;;5067869;28;24956;-53
2022/03/06 07:21:27;;;;;;;9.93;8.93;;;;;;;;;;5068830;28;24491;-53
2022/03/06 07:23:53;;;;;;;11.47;9.50;;;;;;;;;;5067625;28;24860;-53
2022/03/06 07:26:18;;;;;;;10.82;9.10;;;;;;;;;;5066473;28;24402;-54
2022/03/06 07:28:43;;;;;;;10.67;9.40;;;;;;;;;;5067373;28;24411;-52
2022/03/06 07:31:09;;;;;;;10.07;9.07;;;;;;;;;;5067884;28;24441;-53
2022/03/06 07:33:34;;;;;;;10.90;9.77;;;;;;;;;;5067918;28;25102;-54
2022/03/06 07:35:59;;;;;;;10.93;9.80;;;;;;;;;;5067213;28;24418;-53
2022/03/06 07:38:25;;;;;;;9.95;9.05;;;;;;;;;;5067715;28;24819;-51
2022/03/06 07:40:50;;;;;;;10.23;9.13;;;;;;;;;;5067625;28;24852;-52
2022/03/06 07:43:15;;;;;;;9.90;8.90;;;;;;;;;;5067130;28;24467;-50
2022/03/06 07:45:40;;;;;;;10.40;9.43;;;;;;;;;;5067015;28;24422;-51
2022/03/06 07:48:05;;;;;;;10.40;9.38;;;;;;;;;;5067499;28;24769;-51
2022/03/06 07:50:30;;;;;;;10.63;9.53;;;;;;;;;;5067739;28;24406;-51
2022/03/06 07:52:56;;;;;;;11.00;9.60;;;;;;;;;;5067248;28;24943;-52
2022/03/06 07:55:21;;;;;;;9.80;8.90;;;;;;;;;;5066436;28;24411;-52
2022/03/06 07:57:46;;;;;;;10.00;9.00;;;;;;;;;;5066679;28;24805;-52
2022/03/06 08:00:12;;;;;;;10.47;9.33;;;;;;;;;;5067205;28;24494;-51
2022/03/06 08:02:38;;;;;;;10.80;9.77;;;;;;;;;;5066953;28;24395;-51
2022/03/06 08:05:04;;;;;;;10.88;9.77;;;;;;;;;;5067473;28;24425;-51
2022/03/06 08:07:29;;;;;;;11.50;10.10;;;;;;;;;;5067068;28;24925;-52
2022/03/06 08:09:54;;;;;;;10.10;9.00;;;;;;;;;;5067444;28;25010;-52
2022/03/06 08:12:26;;;;;;;11.20;10.10;;;;;;;;;;5067183;28;24395;-51
2022/03/06 08:14:51;;;;;;;10.90;9.80;;;;;;;;;;5066859;28;24418;-52
2022/03/06 08:17:17;;;;;;;10.73;9.63;;;;;;;;;;5067105;28;24971;-51
2022/03/06 08:19:42;;;;;;;10.47;9.37;;;;;;;;;;5066896;28;24502;-52
2022/03/06 08:22:07;;;;;;;9.63;8.73;;;;;;;;;;5067249;28;24413;-51
2022/03/06 08:24:32;;;;;;;10.33;9.23;;;;;;;;;;5067160;28;24417;-51
2022/03/06 08:26:58;;;;;;;9.75;8.75;;;;;;;;;;5064841;28;24403;-50
2022/03/06 08:29:23;;;;;;;10.37;9.37;;;;;;;;;;5067194;28;24753;-51
2022/03/06 08:31:48;;;;;;;10.10;9.10;;;;;;;;;;5067145;28;24391;-50
2022/03/06 08:34:13;;;;;;;8.97;8.07;;;;;;;;;;5066820;28;24596;-51
2022/03/06 08:36:38;;;;;;;8.90;8.10;;;;;;;;;;5066894;28;24986;-51
2022/03/06 08:39:03;;;;;;;8.70;7.80;;;;;;;;;;5066846;28;24468;-51
2022/03/06 08:41:29;;;;;;;9.40;8.30;;;;;;;;;;5065934;28;24544;-51
2022/03/06 08:43:54;;;;;;;9.90;8.87;;;;;;;;;;5066599;28;24411;-51
2022/03/06 08:46:19;;;;;;;10.13;9.13;;;;;;;;;;5066527;28;24398;-51
2022/03/06 08:48:44;;;;;;;9.83;8.93;;;;;;;;;;5064933;28;24422;-51
2022/03/06 08:51:09;;;;;;;9.90;9.00;;;;;;;;;;5065537;28;24512;-52
2022/03/06 08:53:34;;;;;;;10.00;9.00;;;;;;;;;;5066897;28;25114;-51
2022/03/06 08:55:59;;;;;;;9.60;8.70;;;;;;;;;;5066066;28;24399;-51
2022/03/06 08:58:25;;;;;;;10.20;9.20;;;;;;;;;;5064647;28;24769;-52
2022/03/06 09:00:50;;;;;;;11.50;10.30;;;;;;;;;;5066610;28;24445;-51
2022/03/06 09:03:15;;;;;;;9.20;8.40;;;;;;;;;;5066336;28;24514;-51
2022/03/06 09:05:40;;;;;;;9.38;8.50;;;;;;;;;;5066840;28;24959;-52
2022/03/06 09:08:07;;;;;;;10.10;9.10;;;;;;;;;;5066936;28;24406;-51
2022/03/06 09:10:32;;;;;;;9.70;8.20;;;;;;;;;;5072954;28;24370;-50
2022/03/06 09:13:00;;;;;;;9.57;8.50;;;;;;;;;;5073147;28;24751;-51
2022/03/06 09:15:26;;;;;;;8.73;7.82;;;;;;;;;;5073280;28;24396;-51
2022/03/06 09:17:51;;;;;;;9.40;8.45;;;;;;;;;;5073046;28;24414;-50
2022/03/06 09:20:16;;;;;;;11.48;9.50;;;;;;;;;;5073055;28;24460;-50
2022/03/06 09:22:41;;;;;;;11.85;10.70;;;;;;;;;;5072652;28;24389;-50
2022/03/06 09:25:06;;;;;;;9.48;7.70;;;;;;;;;;5073363;28;24426;-50
2022/03/06 09:27:31;;;;;;;8.57;7.72;;;;;;;;;;5072929;28;25012;-52
2022/03/06 09:29:56;;;;;;;9.70;8.70;;;;;;;;;;5072972;28;24980;-51
2022/03/06 09:32:22;;;;;;;10.18;8.23;;;;;;;;;;5073108;28;25099;-51
2022/03/06 09:34:47;;;;;;;9.63;8.63;;;;;;;;;;5073179;28;24395;-51
2022/03/06 09:37:12;;;;;;;9.50;8.60;;;;;;;;;;5072165;28;24422;-52
2022/03/06 09:39:37;;;;;;;9.03;8.13;;;;;;;;;;5072949;28;24962;-52
2022/03/06 09:42:02;;;;;;;8.77;7.50;;;;;;;;;;5072739;28;24983;-52
2022/03/06 09:44:30;;;;;;;13.55;11.45;;;;;;;;;;5073008;28;24993;-52
2022/03/06 09:46:56;;;;;;;8.95;8.05;;;;;;;;;;5072595;28;25037;-52
2022/03/06 09:49:21;;;;;;;8.10;7.40;;;;;;;;;;5072817;28;24391;-51
2022/03/06 09:51:47;;;;;;;8.77;7.97;;;;;;;;;;5073039;28;25084;-52
2022/03/06 09:54:12;;;;;;;9.70;7.70;;;;;;;;;;5072831;28;24405;-51
2022/03/06 09:56:38;;;;;;;8.73;7.93;;;;;;;;;;5072765;28;25010;-52
2022/03/06 09:59:03;;;;;;;9.82;8.10;;;;;;;;;;5070566;28;24405;-51
2022/03/06 10:01:28;;;;;;;8.60;7.80;;;;;;;;;;5072908;28;24471;-51
2022/03/06 10:03:54;;;;;;;8.40;7.70;;;;;;;;;;5072650;28;24537;-52
2022/03/06 10:06:19;;;;;;;9.00;8.20;;;;;;;;;;5072488;28;24410;-52
2022/03/06 10:08:44;;;;;;;9.00;8.10;;;;;;;;;;5072816;28;24398;-51
2022/03/06 10:11:11;;;;;;;10.32;9.20;;;;;;;;;;5072425;28;24387;-52
2022/03/06 10:13:37;;;;;;;14.32;12.10;;;;;;;;;;5072665;28;24402;-52
2022/03/06 10:16:05;;;;;;;9.48;8.52;;;;;;;;;;5072697;28;24422;-51
2022/03/06 10:18:32;;;;;;;9.73;8.83;;;;;;;;;;5072610;28;24418;-51
2022/03/06 10:21:10;;;;;;;10.00;9.00;;;;;;;;;;5069352;28;24482;-51
2022/03/06 10:23:36;;;;;;;9.73;8.80;;;;;;;;;;5069018;28;24414;-52
2022/03/06 10:26:09;;;;;;;8.73;7.93;;;;;;;;;;5069339;28;24464;-52
2022/03/06 10:28:54;;;;;;;10.93;9.93;;;;;;;;;;5069139;28;24850;-51
2022/03/06 10:31:19;;;;;;;10.07;9.07;;;;;;;;;;5069122;28;24771;-51
2022/03/06 10:33:54;;;;;;;9.68;8.20;;;;;;;;;;5069073;28;24406;-51
2022/03/06 10:36:28;;;;;;;9.90;9.00;;;;;;;;;;5069276;28;24409;-52
2022/03/06 10:38:53;;;;;;;9.85;8.95;;;;;;;;;;5069282;28;24399;-51
2022/03/06 10:41:18;;;;;;;11.20;10.10;;;;;;;;;;5068671;28;24493;-51
2022/03/06 10:43:43;;;;;;;12.02;10.82;;;;;;;;;;5068918;28;24513;-51
2022/03/06 10:46:09;;;;;;;11.60;10.50;;;;;;;;;;5068951;28;24403;-52
2022/03/06 10:48:34;;;;;;;12.00;10.80;;;;;;;;;;5067816;28;24430;-51
2022/03/06 10:51:00;;;;;;;11.50;10.30;;;;;;;;;;5068325;28;24791;-51
2022/03/06 10:53:25;;;;;;;11.77;10.57;;;;;;;;;;5068872;28;24402;-52
2022/03/06 10:55:51;;;;;;;11.80;10.60;;;;;;;;;;5068060;28;24391;-52
2022/03/06 10:58:17;;;;;;;12.00;10.70;;;;;;;;;;5068280;28;24410;-52
2022/03/06 11:00:43;;;;;;;13.43;12.02;;;;;;;;;;5068956;28;24967;-51
2022/03/06 11:03:11;;;;;;;12.85;11.50;;;;;;;;;;5068520;28;24897;-52
2022/03/06 11:05:38;;;;;;;11.10;10.05;;;;;;;;;;5068554;28;24463;-52
2022/03/06 11:08:04;;;;;;;12.75;11.45;;;;;;;;;;5068382;28;24391;-52
2022/03/06 11:10:29;;;;;;;12.75;11.55;;;;;;;;;;5068833;28;24398;-52
2022/03/06 11:12:55;;;;;;;12.97;11.70;;;;;;;;;;5068495;28;24393;-52
2022/03/06 11:15:20;;;;;;;12.80;11.50;;;;;;;;;;5068444;28;24391;-52
2022/03/06 11:17:46;;;;;;;12.98;11.13;;;;;;;;;;5068332;28;24457;-52
2022/03/06 11:20:11;;;;;;;13.10;11.80;;;;;;;;;;5068066;28;24407;-51
2022/03/06 11:22:41;;;;;;;13.07;11.63;;;;;;;;;;5068216;28;24386;-51
2022/03/06 11:25:08;;;;;;;13.50;12.10;;;;;;;;;;5068129;28;24858;-52
2022/03/06 11:28:00;;;;;;;12.88;11.57;;;;;;;;;;5068321;28;24800;-51
2022/03/06 11:30:26;;;;;;;12.82;11.63;;;;;;;;;;5063078;28;24418;-51
2022/03/06 11:33:03;;;;;;;12.02;10.88;;;;;;;;;;5067704;28;24468;-51
2022/03/06 11:35:30;;;;;;;12.25;11.15;;;;;;;;;;5068193;28;24445;-52
2022/03/06 11:37:56;;;;;;;12.67;11.37;;;;;;;;;;5067811;28;24406;-51
2022/03/06 11:40:44;;;;;;;14.02;12.57;;;;;;;;;;5067908;28;24394;-52
2022/03/06 11:43:09;;;;;;;13.32;11.93;;;;;;;;;;5067936;28;24530;-51
2022/03/06 11:45:52;;;;;;;14.30;12.90;;;;;;;;;;5067686;28;24964;-51
2022/03/06 11:48:32;;;;;;;14.20;12.80;;;;;;;;;;5067325;28;24464;-52
2022/03/06 11:51:12;;;;;;;12.73;11.63;;;;;;;;;;5067430;28;24399;-51
2022/03/06 11:53:52;;;;;;;12.77;11.48;;;;;;;;;;5067476;28;24940;-51
2022/03/06 11:58:58;;;;;;;13.23;11.93;;;;;;;;;;5067399;28;24418;-51
2022/03/06 12:01:36;;;;;;;13.48;12.18;;;;;;;;;;5067341;28;24968;-52
2022/03/06 12:04:22;;;;;;;12.23;11.13;;;;;;;;;;5067195;28;24628;-52
2022/03/06 12:06:49;;;;;;;13.50;12.20;;;;;;;;;;5053149;28;24421;-51
2022/03/06 12:09:15;;;;;;;13.20;12.00;;;;;;;;;;5067306;28;24489;-52
2022/03/06 12:11:41;;;;;;;12.80;11.50;;;;;;;;;;5067208;28;24921;-52
2022/03/06 12:14:13;;;;;;;12.20;11.00;;;;;;;;;;5067263;28;24405;-51
2022/03/06 12:17:10;;;;;;;12.27;11.00;;;;;;;;;;5067141;28;24972;-51
2022/03/06 12:19:44;;;;;;;13.48;12.18;;;;;;;;;;5050736;28;24953;-51
2022/03/06 12:22:19;;;;;;;14.13;12.83;;;;;;;;;;5066775;28;24764;-51
2022/03/06 12:24:45;;;;;;;13.25;11.85;;;;;;;;;;5067142;28;24844;-51
2022/03/06 12:27:14;;;;;;;12.70;11.40;;;;;;;;;;5066999;28;24395;-52
2022/03/06 12:29:45;;;;;;;12.85;11.70;;;;;;;;;;5067051;28;25251;-51
2022/03/06 12:32:25;;;;;;;14.63;13.23;;;;;;;;;;5067020;28;24425;-53
2022/03/06 12:34:56;;;;;;;13.65;12.45;;;;;;;;;;5066942;28;24419;-51
2022/03/06 12:37:22;;;;;;;14.07;12.77;;;;;;;;;;5066538;28;24461;-52
2022/03/06 12:39:48;;;;;;;13.40;12.10;;;;;;;;;;5067358;28;24944;-52
2022/03/06 12:42:13;;;;;;;13.70;12.50;;;;;;;;;;5066677;28;24987;-52
2022/03/06 12:44:44;;;;;;;13.53;12.20;;;;;;;;;;5066294;28;24977;-51
2022/03/06 12:47:10;;;;;;;14.30;12.90;;;;;;;;;;5066901;28;24752;-52
2022/03/06 12:49:35;;;;;;;14.20;12.80;;;;;;;;;;5064750;28;25010;-51
2022/03/06 12:52:00;;;;;;;14.00;12.70;;;;;;;;;;5066577;28;24933;-51
2022/03/06 12:54:26;;;;;;;12.90;11.70;;;;;;;;;;5065992;28;25197;-51
2022/03/06 12:56:52;;;;;;;12.75;11.55;;;;;;;;;;5066416;28;24543;-51
2022/03/06 12:59:17;;;;;;;12.90;11.60;;;;;;;;;;5066305;28;24490;-51
2022/03/06 13:01:43;;;;;;;13.13;11.93;;;;;;;;;;5066791;28;25004;-51
2022/03/06 13:04:08;;;;;;;12.93;11.68;;;;;;;;;;5066447;28;24411;-52
2022/03/06 13:06:34;;;;;;;11.67;10.57;;;;;;;;;;5066800;28;24402;-51
2022/03/06 13:08:59;;;;;;;12.23;11.03;;;;;;;;;;5066456;28;24892;-51
2022/03/06 13:11:25;;;;;;;12.03;10.90;;;;;;;;;;5066531;28;24421;-52
2022/03/06 13:13:59;;;;;;;12.50;11.30;;;;;;;;;;5066743;28;24391;-51
2022/03/06 13:16:24;;;;;;;10.80;9.73;;;;;;;;;;5066435;28;24796;-52
2022/03/06 13:18:50;;;;;;;10.80;9.80;;;;;;;;;;5066122;28;24527;-52
2022/03/06 13:21:17;;;;;;;11.43;10.40;;;;;;;;;;5066218;28;24602;-52
2022/03/06 13:23:53;;;;;;;9.25;8.35;;;;;;;;;;5066435;28;24421;-51
2022/03/06 13:26:18;;;;;;;9.57;8.63;;;;;;;;;;5066619;28;24386;-51
2022/03/06 13:28:44;;;;;;;8.77;8.03;;;;;;;;;;5066683;28;24414;-52
2022/03/06 13:31:09;;;;;;;8.73;7.93;;;;;;;;;;5066429;28;24960;-51
2022/03/06 13:33:35;;;;;;;8.07;7.30;;;;;;;;;;5066092;28;24403;-51
2022/03/06 13:36:00;;;;;;;8.30;7.60;;;;;;;;;;5066465;28;24843;-51
2022/03/06 13:38:26;;;;;;;7.95;7.32;;;;;;;;;;5066127;28;24398;-51
2022/03/06 13:40:53;;;;;;;8.10;7.40;;;;;;;;;;5066463;28;24427;-52
2022/03/06 13:43:29;;;;;;;7.10;6.60;;;;;;;;;;5066102;28;24423;-51
2022/03/06 13:45:55;;;;;;;7.30;6.60;;;;;;;;;;5066124;28;24398;-52
2022/03/06 13:48:23;;;;;;;7.33;6.63;;;;;;;;;;5066024;28;24395;-52
2022/03/06 13:50:50;;;;;;;7.70;7.00;;;;;;;;;;5066371;28;24494;-51
2022/03/06 13:53:15;;;;;;;7.35;6.75;;;;;;;;;;5065949;28;24472;-51
2022/03/06 13:55:52;;;;;;;7.80;7.00;;;;;;;;;;5068679;28;24518;-51
2022/03/06 13:58:18;;;;;;;7.43;6.72;;;;;;;;;;5069680;28;24406;-51
2022/03/06 14:00:48;;;;;;;7.03;6.32;;;;;;;;;;5070115;28;24746;-51
2022/03/06 14:03:26;;;;;;;7.20;6.60;;;;;;;;;;5069701;28;24410;-51
2022/03/06 14:05:52;;;;;;;7.00;6.20;;;;;;;;;;5069783;28;24478;-52
2022/03/06 14:08:22;;;;;;;6.82;6.20;;;;;;;;;;5069394;28;25048;-51
2022/03/06 14:10:47;;;;;;;7.40;6.70;;;;;;;;;;5069799;28;24410;-51
2022/03/06 14:13:23;;;;;;;7.68;6.90;;;;;;;;;;5069470;28;24403;-51
2022/03/06 14:15:48;;;;;;;7.20;6.67;;;;;;;;;;5069872;28;24409;-51
2022/03/06 14:18:28;;;;;;;7.63;6.93;;;;;;;;;;5069480;28;24839;-51
2022/03/06 14:20:53;;;;;;;7.60;6.80;;;;;;;;;;5070057;28;24525;-51
2022/03/06 14:23:19;;;;;;;8.15;7.10;;;;;;;;;;5069422;28;24533;-51